createdAt,value
2019-01-14T00:01:41.906Z,3.00
2019-01-14T00:04:10.590Z,3.90
2019-01-14T00:06:39.297Z,2.70
2019-01-14T00:09:08.775Z,2.60
2019-01-14T00:11:37.580Z,3.20
2019-01-14T00:14:06.253Z,2.63
2019-01-14T00:16:35.193Z,2.97
2019-01-14T00:19:03.854Z,3.43
2019-01-14T00:21:32.521Z,3.40
2019-01-14T00:24:01.814Z,3.20
2019-01-14T00:26:30.502Z,2.70
2019-01-14T00:28:59.186Z,2.57
2019-01-14T00:31:27.903Z,3.67
2019-01-14T00:33:56.636Z,1.83
2019-01-14T00:36:25.945Z,3.03
2019-01-14T00:38:54.641Z,3.00
2019-01-14T00:41:23.321Z,3.50
2019-01-14T00:43:51.949Z,2.50
2019-01-14T00:46:20.875Z,2.20
2019-01-14T00:48:49.637Z,2.17
2019-01-14T00:51:18.278Z,3.97
2019-01-14T00:53:47.237Z,2.67
2019-01-14T00:56:15.970Z,2.80
2019-01-14T00:58:44.629Z,1.67
2019-01-14T01:01:13.277Z,2.17
2019-01-14T01:03:41.988Z,1.93
2019-01-14T01:06:10.593Z,3.57
2019-01-14T01:08:39.297Z,3.40
2019-01-14T01:11:07.958Z,2.60
2019-01-14T01:13:36.777Z,3.20
2019-01-14T01:16:05.439Z,2.93
2019-01-14T01:18:34.194Z,4.47
2019-01-14T01:21:03.906Z,5.33
2019-01-14T01:23:32.623Z,8.93
2019-01-14T01:26:01.528Z,4.47
2019-01-14T01:28:30.202Z,3.47
2019-01-14T01:30:58.884Z,4.13
2019-01-14T01:33:27.579Z,3.73
2019-01-14T01:35:56.250Z,2.17
2019-01-14T01:38:24.957Z,7.33
2019-01-14T01:40:53.614Z,3.53
2019-01-14T01:43:22.301Z,7.17
2019-01-14T01:45:51.018Z,5.20
2019-01-14T01:48:19.686Z,5.87
2019-01-14T01:50:48.394Z,7.77
2019-01-14T01:53:17.050Z,4.13
2019-01-14T01:55:45.689Z,3.80
2019-01-14T01:58:14.593Z,4.20
2019-01-14T02:00:43.310Z,3.17
2019-01-14T02:03:12.029Z,5.97
2019-01-14T02:05:40.642Z,3.37
2019-01-14T02:08:09.357Z,4.73
2019-01-14T02:10:38.073Z,4.47
2019-01-14T02:13:06.766Z,2.90
2019-01-14T02:15:35.453Z,2.70
2019-01-14T02:18:04.101Z,3.53
2019-01-14T02:20:32.791Z,3.90
2019-01-14T02:23:01.499Z,5.50
2019-01-14T02:25:30.175Z,3.97
2019-01-14T02:27:58.877Z,2.97
2019-01-14T02:30:27.551Z,5.10
2019-01-14T02:32:56.221Z,4.03
2019-01-14T02:35:24.942Z,7.63
2019-01-14T02:37:53.597Z,3.53
2019-01-14T02:40:22.693Z,5.70
2019-01-14T02:42:51.878Z,6.37
2019-01-14T02:45:20.505Z,3.77
2019-01-14T02:47:49.158Z,4.70
2019-01-14T02:50:17.870Z,3.87
2019-01-14T02:52:46.524Z,4.50
2019-01-14T02:55:15.202Z,5.00
2019-01-14T02:57:44.769Z,4.60
2019-01-14T03:00:16.541Z,5.77
2019-01-14T03:02:45.262Z,3.00
2019-01-14T03:05:13.970Z,3.83
2019-01-14T03:07:42.632Z,2.27
2019-01-14T03:10:11.587Z,5.00
2019-01-14T03:12:40.330Z,3.33
2019-01-14T03:15:09.126Z,5.37
2019-01-14T03:17:37.789Z,2.87
2019-01-14T03:20:08.287Z,6.80
2019-01-14T03:22:36.994Z,7.03
2019-01-14T03:25:06.044Z,2.57
2019-01-14T03:27:34.698Z,5.23
2019-01-14T03:30:03.419Z,4.20
2019-01-14T03:32:32.059Z,6.87
2019-01-14T03:35:00.822Z,5.07
2019-01-14T03:37:29.513Z,4.53
2019-01-14T03:39:58.482Z,5.30
2019-01-14T03:42:27.117Z,5.27
2019-01-14T03:44:55.778Z,7.53
2019-01-14T03:47:24.462Z,4.77
2019-01-14T03:49:53.170Z,4.97
2019-01-14T03:52:21.835Z,6.50
2019-01-14T03:54:50.829Z,8.60
2019-01-14T03:57:19.737Z,4.60
2019-01-14T03:59:49.497Z,7.93
2019-01-14T04:02:18.214Z,5.63
2019-01-14T04:04:46.937Z,7.97
2019-01-14T04:07:15.558Z,4.43
2019-01-14T04:09:44.274Z,5.37
2019-01-14T04:12:13.289Z,5.27
2019-01-14T04:14:42.223Z,9.63
2019-01-14T04:17:10.938Z,6.73
2019-01-14T04:19:39.646Z,6.37
2019-01-14T04:22:08.318Z,4.47
2019-01-14T04:24:36.994Z,7.60
2019-01-14T04:27:05.709Z,6.33
2019-01-14T04:29:34.398Z,5.13
2019-01-14T04:32:03.066Z,6.13
2019-01-14T04:34:31.733Z,5.00
2019-01-14T04:37:00.425Z,3.67
2019-01-14T04:39:29.313Z,5.70
2019-01-14T04:41:57.998Z,5.63
2019-01-14T04:44:26.687Z,5.90
2019-01-14T04:46:55.665Z,6.93
2019-01-14T04:49:24.370Z,10.20
2019-01-14T04:51:53.052Z,5.97
2019-01-14T04:54:21.757Z,5.50
2019-01-14T04:56:50.423Z,5.27
2019-01-14T04:59:19.101Z,10.17
2019-01-14T05:01:47.829Z,3.87
2019-01-14T05:04:16.756Z,5.83
2019-01-14T05:06:45.505Z,5.07
2019-01-14T05:09:14.159Z,4.27
2019-01-14T05:11:42.838Z,7.07
2019-01-14T05:14:11.538Z,6.30
2019-01-14T05:16:40.473Z,5.57
2019-01-14T05:19:09.123Z,7.10
2019-01-14T05:21:37.785Z,5.73
2019-01-14T05:24:06.729Z,8.10
2019-01-14T05:26:35.387Z,9.43
2019-01-14T05:29:04.055Z,9.53
2019-01-14T05:31:32.764Z,6.73
2019-01-14T05:34:01.714Z,5.87
2019-01-14T05:36:30.661Z,9.17
2019-01-14T05:38:59.326Z,7.73
2019-01-14T05:41:27.986Z,6.57
2019-01-14T05:43:56.706Z,3.77
2019-01-14T05:46:25.362Z,5.33
2019-01-14T05:48:54.298Z,8.23
2019-01-14T05:51:22.953Z,8.57
2019-01-14T05:53:51.611Z,7.20
2019-01-14T05:56:20.358Z,4.73
2019-01-14T05:58:48.989Z,6.07
2019-01-14T06:01:17.755Z,8.90
2019-01-14T06:03:46.510Z,9.03
2019-01-14T06:06:15.151Z,5.77
2019-01-14T06:08:43.854Z,7.17
2019-01-14T06:11:12.518Z,6.10
2019-01-14T06:13:41.517Z,5.00
2019-01-14T06:16:10.213Z,6.93
2019-01-14T06:18:39.205Z,6.17
2019-01-14T06:21:07.901Z,7.70
2019-01-14T06:23:36.554Z,6.40
2019-01-14T06:26:05.253Z,9.23
2019-01-14T06:28:33.958Z,8.53
2019-01-14T06:31:02.617Z,5.43
2019-01-14T06:33:31.327Z,3.73
2019-01-14T06:35:59.986Z,2.93
2019-01-14T06:38:28.677Z,6.37
2019-01-14T06:40:57.373Z,8.53
2019-01-14T06:43:26.041Z,10.73
2019-01-14T06:45:54.758Z,4.93
2019-01-14T06:48:23.402Z,7.40
2019-01-14T06:50:52.117Z,9.97
2019-01-14T06:53:20.805Z,7.37
2019-01-14T06:55:49.469Z,10.40
2019-01-14T06:58:18.185Z,12.90
2019-01-14T07:00:46.843Z,6.43
2019-01-14T07:03:15.525Z,6.10
2019-01-14T07:05:44.254Z,5.97
2019-01-14T07:08:12.875Z,8.67
2019-01-14T07:10:41.603Z,5.80
2019-01-14T07:13:10.337Z,8.20
2019-01-14T07:15:39.063Z,11.27
2019-01-14T07:18:07.761Z,5.77
2019-01-14T07:20:36.493Z,7.13
2019-01-14T07:23:05.237Z,8.13
2019-01-14T07:25:34.179Z,5.53
2019-01-14T07:28:02.898Z,5.97
2019-01-14T07:30:31.598Z,6.93
2019-01-14T07:33:00.282Z,5.63
2019-01-14T07:35:28.925Z,6.37
2019-01-14T07:37:57.705Z,6.33
2019-01-14T07:40:26.418Z,9.33
2019-01-14T07:42:55.126Z,7.97
2019-01-14T07:45:23.789Z,9.50
2019-01-14T07:47:52.501Z,6.87
2019-01-14T07:50:21.167Z,4.83
2019-01-14T07:52:49.848Z,8.70
2019-01-14T07:55:18.858Z,3.83
2019-01-14T07:57:47.534Z,5.30
2019-01-14T08:00:21.348Z,12.33
2019-01-14T08:02:50.026Z,6.33
2019-01-14T08:05:18.698Z,6.57
2019-01-14T08:07:47.430Z,3.17
2019-01-14T08:10:16.050Z,5.70
2019-01-14T08:12:44.866Z,6.17
2019-01-14T08:15:15.182Z,6.60
2019-01-14T08:17:43.869Z,3.67
2019-01-14T08:20:12.760Z,4.20
2019-01-14T08:22:41.445Z,2.93
2019-01-14T08:25:10.850Z,1.93
2019-01-14T08:27:39.971Z,2.40
2019-01-14T08:30:22.257Z,2.20
2019-01-14T08:32:51.018Z,3.37
2019-01-14T08:35:19.713Z,2.07
2019-01-14T08:37:48.429Z,1.30
2019-01-14T08:40:17.781Z,1.10
2019-01-14T08:42:46.593Z,1.00
2019-01-14T08:45:15.277Z,1.00
2019-01-14T08:47:43.973Z,1.83
2019-01-14T08:50:14.947Z,0.80
2019-01-14T08:52:43.590Z,2.80
2019-01-14T08:55:12.302Z,3.00
2019-01-14T08:57:40.961Z,0.60
2019-01-14T09:00:15.031Z,1.53
2019-01-14T09:02:43.678Z,1.90
2019-01-14T09:05:12.353Z,2.40
2019-01-14T09:07:41.055Z,0.97
2019-01-14T09:10:12.466Z,2.07
2019-01-14T09:12:41.166Z,1.20
2019-01-14T09:15:11.346Z,1.83
2019-01-14T09:17:39.966Z,1.93
2019-01-14T09:20:12.018Z,2.60
2019-01-14T09:22:40.633Z,2.23
2019-01-14T09:25:09.342Z,2.77
2019-01-14T09:27:38.005Z,3.60
2019-01-14T09:30:11.106Z,3.07
2019-01-14T09:32:39.785Z,1.60
2019-01-14T09:35:08.450Z,1.70
2019-01-14T09:37:37.134Z,1.87
2019-01-14T09:40:07.410Z,2.43
2019-01-14T09:42:36.034Z,2.93
2019-01-14T09:45:05.357Z,1.90
2019-01-14T09:47:34.021Z,1.60
2019-01-14T09:50:02.785Z,1.43
2019-01-14T09:52:31.527Z,2.80
2019-01-14T09:55:00.225Z,3.63
2019-01-14T09:57:30.626Z,4.03
2019-01-14T09:59:59.289Z,2.80
2019-01-14T10:02:27.976Z,4.63
2019-01-14T10:04:56.682Z,5.13
2019-01-14T10:07:25.337Z,3.93
2019-01-14T10:09:53.986Z,4.67
2019-01-14T10:12:22.633Z,3.57
2019-01-14T10:14:51.298Z,4.30
2019-01-14T10:17:24.057Z,4.03
2019-01-14T10:19:52.770Z,5.73
2019-01-14T10:22:21.527Z,9.33
2019-01-14T10:24:50.493Z,3.50
2019-01-14T10:27:19.137Z,1.97
2019-01-14T10:29:47.833Z,4.17
2019-01-14T10:32:16.497Z,2.00
2019-01-14T10:34:45.378Z,2.80
2019-01-14T10:37:14.078Z,4.67
2019-01-14T10:39:42.757Z,4.77
2019-01-14T10:42:11.701Z,1.93
2019-01-14T10:44:40.333Z,2.17
2019-01-14T10:47:09.038Z,2.33
2019-01-14T10:49:37.707Z,3.60
2019-01-14T10:52:06.393Z,2.57
2019-01-14T10:54:35.101Z,1.53
2019-01-14T10:57:03.771Z,2.47
2019-01-14T10:59:33.218Z,2.40
2019-01-14T11:02:01.874Z,3.70
2019-01-14T11:04:30.542Z,3.93
2019-01-14T11:06:59.241Z,3.80
2019-01-14T11:09:27.913Z,6.27
2019-01-14T11:11:56.641Z,6.63
2019-01-14T11:14:25.278Z,3.67
2019-01-14T11:16:53.961Z,3.70
2019-01-14T11:19:22.666Z,3.13
2019-01-14T11:21:51.342Z,3.73
2019-01-14T11:24:20.042Z,2.67
2019-01-14T11:26:48.715Z,5.13
2019-01-14T11:29:17.413Z,2.03
2019-01-14T11:31:46.084Z,4.47
2019-01-14T11:34:14.757Z,3.63
2019-01-14T11:36:43.469Z,2.97
2019-01-14T11:39:18.703Z,1.87
2019-01-14T11:41:48.150Z,1.30
2019-01-14T11:44:16.877Z,4.60
2019-01-14T11:46:45.874Z,2.60
2019-01-14T11:49:14.578Z,1.90
2019-01-14T11:51:43.242Z,2.83
2019-01-14T11:54:11.958Z,3.23
2019-01-14T11:56:40.685Z,2.80
2019-01-14T11:59:09.401Z,1.53
2019-01-14T12:01:38.117Z,2.63
2019-01-14T12:04:06.773Z,1.73
2019-01-14T12:06:35.481Z,4.23
2019-01-14T12:09:12.212Z,1.77
2019-01-14T12:11:37.737Z,3.10
2019-01-14T12:14:06.474Z,2.93
2019-01-14T12:16:35.118Z,1.63
2019-01-14T12:19:03.817Z,1.50
2019-01-14T12:21:32.558Z,3.50
2019-01-14T12:24:01.292Z,4.17
2019-01-14T12:26:29.962Z,1.73
2019-01-14T12:28:58.637Z,3.03
2019-01-14T12:31:27.345Z,1.80
2019-01-14T12:33:56.021Z,2.03
2019-01-14T12:36:24.717Z,1.80
2019-01-14T12:38:53.378Z,3.03
2019-01-14T12:41:22.065Z,1.10
2019-01-14T12:43:51.084Z,1.13
2019-01-14T12:46:19.749Z,2.70
2019-01-14T12:48:48.469Z,1.03
2019-01-14T12:51:17.190Z,3.43
2019-01-14T12:53:45.910Z,2.83
2019-01-14T12:56:14.605Z,2.67
2019-01-14T12:58:43.555Z,2.43
2019-01-14T13:01:12.286Z,1.73
2019-01-14T13:03:40.954Z,2.77
2019-01-14T13:06:09.680Z,3.50
2019-01-14T13:08:38.329Z,3.60
2019-01-14T13:11:07.010Z,3.70
2019-01-14T13:13:35.714Z,3.20
2019-01-14T13:16:04.410Z,4.53
2019-01-14T13:18:33.085Z,3.37
2019-01-14T13:21:01.758Z,4.63
2019-01-14T13:23:32.295Z,4.67
2019-01-14T13:26:00.862Z,5.37
2019-01-14T13:28:29.562Z,2.43
2019-01-14T13:30:58.332Z,4.80
2019-01-14T13:33:27.022Z,3.97
2019-01-14T13:35:55.802Z,2.97
2019-01-14T13:38:24.502Z,3.50
2019-01-14T13:40:54.671Z,3.13
2019-01-14T13:43:23.457Z,4.33
2019-01-14T13:45:52.535Z,3.57
2019-01-14T13:48:21.294Z,3.03
2019-01-14T13:50:49.999Z,2.90
2019-01-14T13:53:18.876Z,4.30
2019-01-14T13:55:47.873Z,1.57
2019-01-14T13:58:16.564Z,1.90
2019-01-14T14:00:45.736Z,2.77
2019-01-14T14:03:14.828Z,2.53
2019-01-14T14:05:43.615Z,1.70
2019-01-14T14:08:12.303Z,2.07
2019-01-14T14:10:41.105Z,6.67
2019-01-14T14:13:09.865Z,4.67
2019-01-14T14:15:38.566Z,2.33
2019-01-14T14:18:07.581Z,3.20
2019-01-14T14:20:36.398Z,3.50
2019-01-14T14:23:05.061Z,4.47
2019-01-14T14:25:33.733Z,3.77
2019-01-14T14:28:02.518Z,2.57
2019-01-14T14:30:33.666Z,2.87
2019-01-14T14:33:02.344Z,2.13
2019-01-14T14:35:31.124Z,2.20
2019-01-14T14:38:01.415Z,2.63
2019-01-14T14:40:30.247Z,4.47
2019-01-14T14:42:58.942Z,2.60
2019-01-14T14:45:27.601Z,3.23
2019-01-14T14:47:56.313Z,3.10
2019-01-14T14:50:25.006Z,2.87
2019-01-14T14:52:53.653Z,3.83
2019-01-14T14:55:22.337Z,3.80
2019-01-14T14:57:51.049Z,5.90
2019-01-14T15:00:23.448Z,3.80
2019-01-14T15:02:52.199Z,5.70
2019-01-14T15:05:20.910Z,5.67
2019-01-14T15:07:49.565Z,3.97
2019-01-14T15:10:19.905Z,8.70
2019-01-14T15:12:48.575Z,4.67
2019-01-14T15:15:18.327Z,3.63
2019-01-14T15:17:47.266Z,7.30
2019-01-14T15:20:17.264Z,1.50
2019-01-14T15:22:45.974Z,9.57
2019-01-14T15:25:14.691Z,5.37
2019-01-14T15:27:43.355Z,6.10
2019-01-14T15:30:20.690Z,3.80
2019-01-14T15:32:49.313Z,4.67
2019-01-14T15:35:18.001Z,4.47
2019-01-14T15:37:46.701Z,5.53
2019-01-14T15:40:15.586Z,10.67
2019-01-14T15:42:44.293Z,6.40
2019-01-14T15:45:14.730Z,6.13
2019-01-14T15:47:43.377Z,4.17
2019-01-14T15:50:12.103Z,3.67
2019-01-14T15:52:40.742Z,3.97
2019-01-14T15:55:11.760Z,5.00
2019-01-14T15:57:40.914Z,4.17
2019-01-14T16:00:11.959Z,3.17
2019-01-14T16:02:41.201Z,4.87
2019-01-14T16:05:09.935Z,3.20
2019-01-14T16:07:38.669Z,3.23
2019-01-14T16:10:10.772Z,6.47
2019-01-14T16:12:39.541Z,4.73
2019-01-14T16:15:08.322Z,3.50
2019-01-14T16:17:37.058Z,3.63
2019-01-14T16:20:06.998Z,3.10
2019-01-14T16:22:35.642Z,3.73
2019-01-14T16:25:06.476Z,2.47
2019-01-14T16:27:35.141Z,2.73
2019-01-14T16:30:04.205Z,3.90
2019-01-14T16:32:32.919Z,5.10
2019-01-14T16:35:02.184Z,3.03
2019-01-14T16:37:30.950Z,3.43
2019-01-14T16:39:59.726Z,9.50
2019-01-14T16:42:28.562Z,8.43
2019-01-14T16:44:57.397Z,5.40
2019-01-14T16:47:26.241Z,5.53
2019-01-14T16:49:54.957Z,4.83
2019-01-14T16:52:23.975Z,3.77
2019-01-14T16:54:52.918Z,4.07
2019-01-14T16:57:21.625Z,6.43
2019-01-14T16:59:50.582Z,3.67
2019-01-14T17:02:19.305Z,6.77
2019-01-14T17:04:48.287Z,4.80
2019-01-14T17:07:17.005Z,3.73
2019-01-14T17:09:45.662Z,3.87
2019-01-14T17:12:14.982Z,3.57
2019-01-14T17:14:43.683Z,7.70
2019-01-14T17:17:12.338Z,5.03
2019-01-14T17:19:41.011Z,6.80
2019-01-14T17:22:09.754Z,11.87
2019-01-14T17:24:38.390Z,4.37
2019-01-14T17:27:07.079Z,5.87
2019-01-14T17:29:35.785Z,9.90
2019-01-14T17:32:04.449Z,5.90
2019-01-14T17:34:33.124Z,7.33
2019-01-14T17:37:02.047Z,6.50
2019-01-14T17:39:30.700Z,8.53
2019-01-14T17:41:59.398Z,7.50
2019-01-14T17:44:28.102Z,8.17
2019-01-14T17:46:56.839Z,7.70
2019-01-14T17:49:25.546Z,3.97
2019-01-14T17:51:54.258Z,4.63
2019-01-14T17:54:22.927Z,3.77
2019-01-14T17:56:51.601Z,4.37
2019-01-14T17:59:20.322Z,3.77
2019-01-14T18:01:48.969Z,3.07
2019-01-14T18:04:17.662Z,4.10
2019-01-14T18:06:46.370Z,4.07
2019-01-14T18:09:15.033Z,5.00
2019-01-14T18:11:43.718Z,9.20
2019-01-14T18:14:12.357Z,11.07
2019-01-14T18:16:40.982Z,6.70
2019-01-14T18:19:09.661Z,7.37
2019-01-14T18:21:38.659Z,6.53
2019-01-14T18:24:07.438Z,5.63
2019-01-14T18:26:36.130Z,3.63
2019-01-14T18:29:04.854Z,5.40
2019-01-14T18:31:33.590Z,2.63
2019-01-14T18:34:02.549Z,7.83
2019-01-14T18:36:31.214Z,3.77
2019-01-14T18:38:59.874Z,5.40
2019-01-14T18:41:28.566Z,4.60
2019-01-14T18:43:57.278Z,3.57
2019-01-14T18:46:25.943Z,4.40
2019-01-14T18:48:54.684Z,4.17
2019-01-14T18:51:23.433Z,6.03
2019-01-14T18:53:52.099Z,4.23
2019-01-14T18:56:20.794Z,3.57
2019-01-14T18:58:49.486Z,3.97
2019-01-14T19:01:18.146Z,3.77
2019-01-14T19:03:46.826Z,7.37
2019-01-14T19:06:15.569Z,5.70
2019-01-14T19:08:44.201Z,3.60
2019-01-14T19:11:12.885Z,7.63
2019-01-14T19:13:41.859Z,5.80
2019-01-14T19:16:10.553Z,6.73
2019-01-14T19:18:39.586Z,7.23
2019-01-14T19:21:08.265Z,6.93
2019-01-14T19:23:36.990Z,6.63
2019-01-14T19:26:05.771Z,7.40
2019-01-14T19:28:34.495Z,8.97
2019-01-14T19:31:03.195Z,9.43
2019-01-14T19:33:31.898Z,7.47
2019-01-14T19:36:00.581Z,6.50
2019-01-14T19:38:29.250Z,4.37
2019-01-14T19:41:02.035Z,10.50
2019-01-14T19:43:29.670Z,13.30
2019-01-14T19:45:58.378Z,7.70
2019-01-14T19:48:27.104Z,8.93
2019-01-14T19:50:55.863Z,7.43
2019-01-14T19:53:24.935Z,8.67
2019-01-14T19:55:53.631Z,9.43
2019-01-14T19:58:23.167Z,7.90
2019-01-14T20:00:51.941Z,11.30
2019-01-14T20:03:20.617Z,6.20
2019-01-14T20:05:49.321Z,8.87
2019-01-14T20:08:19.193Z,11.27
2019-01-14T20:10:47.890Z,6.50
2019-01-14T20:13:16.609Z,5.93
2019-01-14T20:15:45.498Z,10.27
2019-01-14T20:18:14.150Z,8.87
2019-01-14T20:20:42.861Z,6.20
2019-01-14T20:23:11.545Z,5.20
2019-01-14T20:25:40.349Z,5.20
2019-01-14T20:28:09.061Z,3.73
2019-01-14T20:30:38.044Z,4.83
2019-01-14T20:33:06.690Z,6.30
2019-01-14T20:35:35.396Z,5.40
2019-01-14T20:38:04.093Z,6.47
2019-01-14T20:40:32.731Z,5.17
2019-01-14T20:43:01.519Z,7.13
2019-01-14T20:45:30.207Z,4.87
2019-01-14T20:47:59.221Z,4.70
2019-01-14T20:50:27.906Z,6.30
2019-01-14T20:52:56.597Z,5.43
2019-01-14T20:55:25.248Z,6.43
2019-01-14T20:57:53.971Z,4.50
2019-01-14T21:00:24.477Z,4.80
2019-01-14T21:02:53.258Z,5.50
2019-01-14T21:05:22.774Z,6.70
2019-01-14T21:07:53.113Z,6.13
2019-01-14T21:10:21.830Z,6.40
2019-01-14T21:12:50.781Z,5.83
2019-01-14T21:15:19.570Z,5.80
2019-01-14T21:17:48.394Z,7.87
2019-01-14T21:20:19.329Z,6.60
2019-01-14T21:22:48.151Z,5.47
2019-01-14T21:25:16.907Z,5.63
2019-01-14T21:27:45.649Z,4.70
2019-01-14T21:30:19.462Z,6.03
2019-01-14T21:32:48.475Z,7.23
2019-01-14T21:35:17.174Z,4.30
2019-01-14T21:37:45.965Z,8.90
2019-01-14T21:40:14.981Z,5.57
2019-01-14T21:42:43.750Z,7.20
2019-01-14T21:45:12.779Z,15.27
2019-01-14T21:47:41.555Z,9.53
2019-01-14T21:50:12.977Z,6.00
2019-01-14T21:52:41.666Z,5.50
2019-01-14T21:55:12.277Z,7.23
2019-01-14T21:57:40.977Z,6.23
2019-01-14T22:00:13.146Z,5.27
2019-01-14T22:02:41.875Z,7.33
2019-01-14T22:05:10.628Z,8.57
2019-01-14T22:07:39.409Z,5.60
2019-01-14T22:10:11.487Z,8.63
2019-01-14T22:12:40.258Z,6.77
2019-01-14T22:15:09.046Z,10.83
2019-01-14T22:17:38.035Z,9.13
2019-01-14T22:20:10.073Z,6.50
2019-01-14T22:22:38.820Z,6.80
2019-01-14T22:25:08.467Z,5.07
2019-01-14T22:27:37.226Z,9.50
2019-01-14T22:30:10.330Z,7.97
2019-01-14T22:32:39.110Z,7.03
2019-01-14T22:35:07.854Z,4.80
2019-01-14T22:37:37.077Z,10.97
2019-01-14T22:40:06.397Z,12.20
2019-01-14T22:42:35.090Z,7.20
2019-01-14T22:45:03.885Z,9.07
2019-01-14T22:47:33.408Z,9.73
2019-01-14T22:50:02.054Z,13.13
2019-01-14T22:52:30.746Z,13.10
2019-01-14T22:54:59.442Z,7.63
2019-01-14T22:57:28.371Z,9.40
2019-01-14T22:59:56.997Z,7.97
2019-01-14T23:02:25.794Z,9.03
2019-01-14T23:04:54.728Z,8.97
2019-01-14T23:07:23.359Z,3.90
2019-01-14T23:09:54.079Z,5.53
2019-01-14T23:12:23.040Z,5.30
2019-01-14T23:14:51.681Z,6.87
2019-01-14T23:17:20.334Z,6.30
2019-01-14T23:19:49.041Z,10.73
2019-01-14T23:22:17.737Z,4.47
2019-01-14T23:24:46.434Z,3.80
2019-01-14T23:27:15.102Z,6.07
2019-01-14T23:29:43.784Z,6.70
2019-01-14T23:32:12.506Z,11.50
2019-01-14T23:34:41.183Z,4.17
2019-01-14T23:37:09.838Z,4.13
2019-01-14T23:39:38.555Z,6.07
2019-01-14T23:42:07.225Z,6.67
2019-01-14T23:44:35.897Z,5.93
2019-01-14T23:47:04.602Z,5.17
2019-01-14T23:49:33.261Z,8.83
2019-01-14T23:52:01.958Z,8.77
2019-01-14T23:54:36.953Z,8.27
2019-01-14T23:57:01.081Z,6.30
2019-01-14T23:59:29.746Z,7.77
